createdAt,value
2018-12-10T00:00:02.512Z,10.55
2018-12-10T00:02:38.145Z,10.49
2018-12-10T00:05:09.606Z,10.00
2018-12-10T00:07:40.274Z,9.59
2018-12-10T00:10:08.876Z,9.18
2018-12-10T00:12:37.621Z,8.99
2018-12-10T00:15:06.319Z,9.03
2018-12-10T00:20:39.924Z,9.63
2018-12-10T00:23:08.430Z,9.71
2018-12-10T00:25:37.430Z,9.85
2018-12-10T00:28:06.001Z,9.60
2018-12-10T00:30:34.690Z,9.14
2018-12-10T00:33:03.675Z,9.50
2018-12-10T00:35:32.260Z,9.66
2018-12-10T00:38:01.726Z,10.03
2018-12-10T00:40:31.076Z,9.79
2018-12-10T00:43:04.998Z,9.96
2018-12-10T00:45:39.824Z,9.69
2018-12-10T00:48:10.066Z,9.29
2018-12-10T00:50:41.610Z,8.75
2018-12-10T00:53:11.949Z,7.98
2018-12-10T00:55:40.610Z,7.35
2018-12-10T00:58:12.255Z,7.29
2018-12-10T01:00:45.248Z,7.55
2018-12-10T01:03:23.298Z,7.69
2018-12-10T01:05:53.616Z,8.41
2018-12-10T01:08:23.928Z,8.51
2018-12-10T01:10:54.236Z,8.35
2018-12-10T01:13:23.859Z,8.62
2018-12-10T01:15:53.762Z,9.50
2018-12-10T01:18:24.900Z,9.79
2018-12-10T01:20:54.438Z,9.90
2018-12-10T01:23:24.013Z,9.68
2018-12-10T01:25:52.909Z,9.82
2018-12-10T01:28:21.832Z,9.82
2018-12-10T01:30:51.913Z,9.46
2018-12-10T01:33:20.925Z,9.30
2018-12-10T01:35:49.602Z,8.96
2018-12-10T01:38:18.193Z,8.65
2018-12-10T01:40:46.684Z,8.32
2018-12-10T01:43:15.376Z,8.39
2018-12-10T01:45:44.058Z,8.75
2018-12-10T01:48:12.639Z,8.95
2018-12-10T01:50:42.135Z,8.83
2018-12-10T01:53:10.875Z,8.76
2018-12-10T01:55:39.860Z,8.87
2018-12-10T01:58:08.700Z,8.72
2018-12-10T02:00:37.717Z,8.91
2018-12-10T02:03:11.003Z,9.14
2018-12-10T02:05:40.696Z,9.01
2018-12-10T02:08:09.038Z,8.86
2018-12-10T02:10:37.881Z,8.51
2018-12-10T02:13:06.453Z,8.07
2018-12-10T02:15:34.912Z,8.00
2018-12-10T02:18:04.748Z,8.53
2018-12-10T02:20:33.644Z,9.00
2018-12-10T02:23:02.234Z,8.75
2018-12-10T02:25:31.143Z,8.43
2018-12-10T02:28:00.017Z,8.29
2018-12-10T02:30:28.841Z,9.02
2018-12-10T02:32:57.594Z,9.00
2018-12-10T02:35:26.386Z,9.29
2018-12-10T02:37:55.892Z,8.93
2018-12-10T02:40:24.570Z,8.86
2018-12-10T02:42:53.881Z,8.74
2018-12-10T02:45:22.537Z,8.17
2018-12-10T02:47:51.249Z,7.72
2018-12-10T02:50:20.889Z,7.15
2018-12-10T02:52:49.840Z,6.73
2018-12-10T02:55:18.839Z,7.13
2018-12-10T02:57:47.740Z,7.43
2018-12-10T03:00:17.559Z,7.12
2018-12-10T03:02:48.770Z,7.05
2018-12-10T03:05:17.493Z,7.56
2018-12-10T03:07:49.034Z,7.29
2018-12-10T03:10:17.724Z,7.45
2018-12-10T03:12:47.133Z,7.03
2018-12-10T03:15:16.691Z,6.48
2018-12-10T03:17:45.774Z,6.14
2018-12-10T03:20:15.042Z,6.09
2018-12-10T03:22:44.224Z,6.15
2018-12-10T03:25:13.758Z,6.66
2018-12-10T03:27:43.745Z,7.39
2018-12-10T03:30:12.562Z,7.83
2018-12-10T03:32:40.967Z,7.76
2018-12-10T03:35:10.380Z,7.57
2018-12-10T03:37:39.742Z,7.52
2018-12-10T03:40:09.495Z,7.69
2018-12-10T03:42:38.142Z,7.98
2018-12-10T03:45:07.386Z,8.00
2018-12-10T03:47:40.236Z,7.97
2018-12-10T03:50:09.908Z,8.04
2018-12-10T03:55:52.465Z,7.48
2018-12-10T03:58:21.375Z,7.34
2018-12-10T04:06:31.586Z,7.13
2018-12-10T04:12:11.268Z,7.03
2018-12-10T04:14:41.321Z,7.08
2018-12-10T04:17:15.330Z,6.84
2018-12-10T04:19:46.903Z,6.63
2018-12-10T04:25:14.787Z,6.95
2018-12-10T04:30:30.126Z,6.55
2018-12-10T04:32:59.019Z,6.43
2018-12-10T04:35:28.883Z,6.65
2018-12-10T04:37:57.372Z,6.57
2018-12-10T04:43:29.603Z,6.66
2018-12-10T04:45:59.295Z,6.71
2018-12-10T04:48:28.159Z,6.78
2018-12-10T04:50:57.569Z,6.81
2018-12-10T04:53:26.670Z,6.71
2018-12-10T04:55:56.253Z,6.22
2018-12-10T05:01:16.640Z,5.53
2018-12-10T05:06:43.650Z,4.78
2018-12-10T05:09:12.076Z,4.86
2018-12-10T05:11:41.030Z,5.66
2018-12-10T05:14:10.951Z,6.13
2018-12-10T05:16:44.748Z,6.59
2018-12-10T05:19:14.746Z,6.73
2018-12-10T05:24:26.516Z,5.46
2018-12-10T05:27:02.170Z,4.96
2018-12-10T05:29:31.597Z,4.69
2018-12-10T05:32:02.589Z,4.36
2018-12-10T05:34:31.456Z,4.17
2018-12-10T05:37:05.576Z,4.37
2018-12-10T05:42:41.309Z,4.04
2018-12-10T05:45:11.699Z,4.06
2018-12-10T05:47:40.615Z,4.24
2018-12-10T05:50:13.449Z,4.55
2018-12-10T05:52:42.544Z,4.72
2018-12-10T05:55:11.278Z,4.55
2018-12-10T06:00:31.134Z,4.68
2018-12-10T06:03:06.922Z,5.20
2018-12-10T06:05:36.199Z,5.67
2018-12-10T06:10:50.154Z,4.90
2018-12-10T06:13:18.666Z,4.57
2018-12-10T06:53:28.947Z,7.66
2018-12-10T06:55:59.371Z,7.95
2018-12-10T06:58:28.773Z,7.74
2018-12-10T07:03:42.545Z,7.32
2018-12-10T07:06:11.287Z,6.97
2018-12-10T07:08:40.018Z,7.14
2018-12-10T07:11:09.955Z,7.71
2018-12-10T07:13:38.544Z,7.98
2018-12-10T07:16:07.343Z,8.24
2018-12-10T07:21:17.611Z,8.06
2018-12-10T07:23:48.797Z,8.05
2018-12-10T07:26:17.827Z,8.16
2018-12-10T07:31:43.002Z,8.80
2018-12-10T07:34:12.001Z,8.99
2018-12-10T07:39:44.463Z,8.97
2018-12-10T07:42:15.309Z,8.63
2018-12-10T07:44:44.649Z,8.93
2018-12-10T07:47:15.344Z,9.47
2018-12-10T07:49:43.919Z,10.03
2018-12-10T07:52:13.308Z,10.27
2018-12-10T07:57:26.186Z,8.04
2018-12-10T07:59:55.890Z,8.34
2018-12-10T08:02:24.896Z,9.21
2018-12-10T08:04:54.911Z,9.72
2018-12-10T08:07:30.028Z,10.28
2018-12-10T08:10:00.701Z,10.96
2018-12-10T08:12:30.026Z,11.73
2018-12-10T08:17:34.296Z,12.89
2018-12-10T08:20:03.489Z,13.10
2018-12-10T08:25:18.604Z,12.98
2018-12-10T08:27:48.199Z,12.79
2018-12-10T08:30:16.874Z,12.95
2018-12-10T08:38:06.895Z,12.78
2018-12-10T08:40:35.396Z,12.40
2018-12-10T08:43:03.746Z,12.57
2018-12-10T08:45:32.358Z,12.99
2018-12-10T08:53:51.965Z,14.61
2018-12-10T08:56:20.547Z,14.69
2018-12-10T08:58:48.932Z,14.90
2018-12-10T09:01:17.301Z,14.03
2018-12-10T09:03:47.527Z,13.81
2018-12-10T09:06:35.882Z,13.80
2018-12-10T09:09:06.402Z,13.98
2018-12-10T09:11:35.858Z,14.06
2018-12-10T09:14:05.522Z,13.82
2018-12-10T09:19:43.750Z,12.11
2018-12-10T09:22:17.149Z,12.91
2018-12-10T09:30:27.657Z,11.92
2018-12-10T09:33:24.790Z,12.08
2018-12-10T09:39:48.793Z,14.18
2018-12-10T09:56:06.240Z,16.70
2018-12-10T10:01:19.932Z,17.80
2018-12-10T10:03:49.797Z,18.67
2018-12-10T10:06:18.816Z,18.82
2018-12-10T10:08:47.132Z,18.85
2018-12-10T10:11:17.098Z,18.53
2018-12-10T10:13:45.778Z,18.24
2018-12-10T10:16:16.016Z,18.09
2018-12-10T10:18:45.301Z,17.92
2018-12-10T10:21:13.779Z,18.06
2018-12-10T10:23:42.368Z,18.56
2018-12-10T10:26:10.841Z,18.45
2018-12-10T10:28:39.337Z,19.05
2018-12-10T10:31:08.713Z,18.98
2018-12-10T10:33:37.317Z,18.98
2018-12-10T10:36:05.893Z,18.73
2018-12-10T10:38:35.629Z,19.50
2018-12-10T10:41:03.995Z,19.32
2018-12-10T10:43:41.932Z,19.28
2018-12-10T10:46:12.386Z,18.35
2018-12-10T10:48:41.017Z,17.90
2018-12-10T10:51:10.529Z,17.88
2018-12-10T10:53:41.465Z,17.98
2018-12-10T10:56:09.960Z,17.84
2018-12-10T10:58:38.305Z,18.27
2018-12-10T11:01:12.330Z,18.46
2018-12-10T11:03:48.128Z,18.27
2018-12-10T11:06:17.702Z,18.27
2018-12-10T11:08:46.173Z,18.38
2018-12-10T11:13:56.361Z,17.94
2018-12-10T11:19:21.275Z,17.49
2018-12-10T11:24:45.650Z,17.96
2018-12-10T11:27:48.013Z,17.50
2018-12-10T11:30:23.157Z,17.49
2018-12-10T11:32:52.419Z,17.69
2018-12-10T11:35:22.525Z,17.89
2018-12-10T11:37:56.694Z,18.35
2018-12-10T11:40:32.414Z,18.47
2018-12-10T11:43:01.999Z,18.32
2018-12-10T11:48:22.309Z,18.52
2018-12-10T11:56:04.337Z,18.52
2018-12-10T11:58:43.030Z,18.20
2018-12-10T12:01:11.615Z,18.20
2018-12-10T12:03:40.020Z,18.33
2018-12-10T12:14:38.861Z,18.16
2018-12-10T12:17:15.560Z,18.83
2018-12-10T12:20:03.702Z,18.78
2018-12-10T12:25:27.086Z,18.27
2018-12-10T12:33:36.515Z,18.55
2018-12-10T12:36:26.857Z,18.65
2018-12-10T12:39:08.807Z,18.78
2018-12-10T12:41:39.312Z,18.37
2018-12-10T12:44:12.433Z,17.99
2018-12-10T12:49:49.899Z,18.45
2018-12-10T13:14:54.988Z,17.71
2018-12-10T13:20:33.033Z,17.86
2018-12-10T13:23:15.140Z,17.74
2018-12-10T13:25:47.366Z,17.01
2018-12-10T13:28:25.662Z,16.99
2018-12-10T13:30:56.774Z,17.17
2018-12-10T13:33:27.101Z,17.49
2018-12-10T14:01:02.876Z,16.04
2018-12-10T14:03:32.863Z,15.78
2018-12-10T14:06:01.305Z,16.01
2018-12-10T14:08:43.461Z,15.87
2018-12-10T14:11:14.631Z,15.29
2018-12-10T14:13:43.005Z,14.32
2018-12-10T14:16:11.418Z,13.77
2018-12-10T14:18:39.760Z,13.34
2018-12-10T14:21:08.116Z,13.01
2018-12-10T14:23:36.518Z,12.82
2018-12-10T14:26:04.847Z,12.63
2018-12-10T14:28:33.617Z,12.44
2018-12-10T14:31:02.135Z,12.35
2018-12-10T14:33:30.489Z,12.19
2018-12-10T14:35:59.076Z,12.12
2018-12-10T14:38:28.444Z,12.14
2018-12-10T14:40:56.842Z,12.03
2018-12-10T14:43:25.217Z,11.98
2018-12-10T14:45:53.591Z,11.99
2018-12-10T14:48:22.033Z,11.97
2018-12-10T14:50:50.388Z,11.92
2018-12-10T14:53:18.984Z,11.94
2018-12-10T14:55:47.342Z,11.81
2018-12-10T14:58:15.696Z,11.80
2018-12-10T15:00:43.963Z,11.79
2018-12-10T15:03:19.130Z,11.77
2018-12-10T15:05:50.159Z,11.76
2018-12-10T15:08:18.469Z,11.66
2018-12-10T15:10:46.902Z,11.58
2018-12-10T15:13:15.228Z,11.41
2018-12-10T15:15:43.584Z,11.34
2018-12-10T15:18:11.952Z,11.21
2018-12-10T15:20:40.463Z,11.29
2018-12-10T15:23:08.798Z,11.20
2018-12-10T15:25:37.087Z,11.26
2018-12-10T15:28:05.409Z,11.24
2018-12-10T15:30:33.820Z,11.17
2018-12-10T15:33:02.158Z,10.99
2018-12-10T15:35:30.603Z,10.88
2018-12-10T15:37:58.926Z,10.74
2018-12-10T15:40:27.394Z,10.80
2018-12-10T15:42:55.718Z,10.71
2018-12-10T15:45:24.819Z,10.52
2018-12-10T15:47:53.548Z,10.54
2018-12-10T16:49:14.903Z,9.26
2018-12-10T16:51:47.291Z,9.47
2018-12-10T16:54:16.476Z,9.51
2018-12-10T16:56:49.795Z,9.23
2018-12-10T16:59:20.389Z,9.27
2018-12-10T17:01:48.818Z,9.28
2018-12-10T17:04:23.646Z,9.20
2018-12-10T17:06:57.623Z,9.09
2018-12-10T17:09:26.736Z,9.09
2018-12-10T17:12:01.141Z,9.08
2018-12-10T17:14:30.421Z,8.87
2018-12-10T17:17:05.446Z,8.66
2018-12-10T17:19:35.329Z,8.70
2018-12-10T17:22:09.838Z,8.82
2018-12-10T17:24:39.577Z,8.82
2018-12-10T17:27:14.681Z,8.74
2018-12-10T17:29:44.136Z,8.73
2018-12-10T17:32:17.272Z,8.74
2018-12-10T17:34:45.885Z,8.74
2018-12-10T17:37:18.046Z,8.54
2018-12-10T17:39:47.118Z,8.38
2018-12-10T17:42:20.234Z,8.06
2018-12-10T17:44:49.947Z,7.41
2018-12-10T17:47:23.845Z,6.98
2018-12-10T17:49:53.923Z,6.98
2018-12-10T17:52:22.587Z,7.05
2018-12-10T17:54:51.094Z,7.18
2018-12-10T17:57:25.810Z,7.43
2018-12-10T17:59:56.136Z,7.39
2018-12-10T18:02:28.409Z,7.34
2018-12-10T18:04:58.365Z,7.31
2018-12-10T18:07:32.042Z,7.41
2018-12-10T18:10:00.445Z,7.31
2018-12-10T18:12:36.181Z,7.33
2018-12-10T18:15:05.800Z,7.32
2018-12-10T18:17:34.289Z,7.52
2018-12-10T18:20:02.792Z,7.50
2018-12-10T18:22:35.938Z,7.56
2018-12-10T18:25:05.454Z,7.60
2018-12-10T18:27:36.690Z,7.64
2018-12-10T18:30:06.728Z,7.62
2018-12-10T18:32:38.665Z,7.54
2018-12-10T18:35:07.764Z,7.59
2018-12-10T18:37:40.106Z,7.30
2018-12-10T18:40:11.251Z,7.32
2018-12-10T18:42:39.896Z,7.43
2018-12-10T18:45:12.407Z,7.22
2018-12-10T18:47:40.836Z,7.05
2018-12-10T18:50:09.353Z,7.12
2018-12-10T18:52:44.771Z,7.46
2018-12-10T18:55:13.655Z,7.51
2018-12-10T18:57:42.173Z,7.46
2018-12-10T19:00:12.090Z,7.52
2018-12-10T19:02:44.230Z,7.44
2018-12-10T19:05:13.587Z,7.45
2018-12-10T19:07:44.703Z,7.36
2018-12-10T19:10:14.531Z,7.57
2018-12-10T19:12:43.111Z,7.45
2018-12-10T19:15:12.366Z,7.46
2018-12-10T19:17:40.709Z,7.41
2018-12-10T19:20:13.583Z,7.25
2018-12-10T19:22:42.903Z,7.18
2018-12-10T19:25:12.237Z,7.29
2018-12-10T19:27:40.561Z,7.35
2018-12-10T19:30:11.340Z,7.27
2018-12-10T19:32:39.744Z,7.08
2018-12-10T19:35:08.306Z,7.11
2018-12-10T19:37:42.851Z,7.07
2018-12-10T19:40:11.893Z,7.12
2018-12-10T19:42:40.155Z,7.23
2018-12-10T19:45:08.629Z,7.12
2018-12-10T19:47:37.109Z,7.19
2018-12-10T19:50:07.339Z,7.02
2018-12-10T19:52:41.636Z,7.15
2018-12-10T19:55:11.565Z,6.92
2018-12-10T19:57:39.924Z,6.82
2018-12-10T20:00:09.061Z,6.67
2018-12-10T20:02:37.645Z,6.72
2018-12-10T20:05:06.799Z,6.93
2018-12-10T20:07:35.190Z,6.95
2018-12-10T20:10:05.085Z,7.15
2018-12-10T20:12:41.785Z,7.13
2018-12-10T20:15:18.862Z,7.24
2018-12-10T20:17:51.740Z,7.27
2018-12-10T20:20:20.055Z,7.23
2018-12-10T20:22:48.414Z,7.23
2018-12-10T20:25:16.778Z,7.00
2018-12-10T20:27:45.067Z,6.79
2018-12-10T20:30:13.801Z,6.76
2018-12-10T20:32:44.705Z,6.81
2018-12-10T20:35:13.177Z,6.90
2018-12-10T20:37:41.548Z,6.94
2018-12-10T20:40:09.933Z,6.89
2018-12-10T20:42:38.671Z,6.92
2018-12-10T20:45:08.137Z,7.17
2018-12-10T20:47:42.621Z,7.19
2018-12-10T20:50:11.820Z,6.96
2018-12-10T20:52:40.143Z,6.72
2018-12-10T20:55:08.546Z,6.59
2018-12-10T20:57:41.459Z,6.45
2018-12-10T21:00:07.736Z,6.44
2018-12-10T21:02:36.096Z,6.42
2018-12-10T21:05:04.486Z,6.37
2018-12-10T21:07:32.793Z,6.38
2018-12-10T21:10:01.126Z,6.41
2018-12-10T21:12:34.313Z,6.23
2018-12-10T21:15:03.004Z,6.16
2018-12-10T21:17:45.491Z,6.12
2018-12-10T21:20:14.168Z,5.91
2018-12-10T21:22:44.373Z,5.75
2018-12-10T21:25:31.882Z,5.96
2018-12-10T21:28:05.200Z,5.94
2018-12-10T21:30:34.393Z,5.78
2018-12-10T21:33:02.966Z,5.76
2018-12-10T21:35:31.449Z,5.67
2018-12-10T21:37:59.936Z,5.59
2018-12-10T21:40:28.344Z,5.60
2018-12-10T21:42:56.808Z,5.48
2018-12-10T21:45:25.189Z,5.40
2018-12-10T21:47:53.688Z,5.40
2018-12-10T21:50:22.162Z,5.34
2018-12-10T21:52:51.495Z,5.31
2018-12-10T21:55:19.810Z,5.26
2018-12-10T21:57:48.377Z,5.25
2018-12-10T22:00:16.884Z,5.16
2018-12-10T22:02:48.189Z,4.94
2018-12-10T22:05:17.881Z,4.84
2018-12-10T22:07:46.749Z,4.80
2018-12-10T22:10:15.402Z,4.76
2018-12-10T22:12:43.867Z,4.65
2018-12-10T22:15:13.026Z,4.46
2018-12-10T22:17:47.138Z,4.29
2018-12-10T22:20:15.578Z,4.19
2018-12-10T22:22:44.004Z,4.05
2018-12-10T22:25:13.126Z,4.30
2018-12-10T22:27:41.965Z,4.58
2018-12-10T22:30:11.326Z,4.49
2018-12-10T22:32:42.945Z,4.70
2018-12-10T22:35:13.593Z,4.67
2018-12-10T22:37:42.700Z,4.41
2018-12-10T22:40:12.132Z,4.17
2018-12-10T22:42:41.542Z,4.13
2018-12-10T22:45:11.202Z,4.22
2018-12-10T22:47:41.863Z,4.46
2018-12-10T22:50:11.123Z,4.40
2018-12-10T22:52:39.659Z,4.31
2018-12-10T22:55:08.015Z,4.07
2018-12-10T22:57:40.014Z,3.70
2018-12-10T23:00:09.735Z,3.80
2018-12-10T23:02:40.871Z,4.23
2018-12-10T23:05:14.847Z,4.29
2018-12-10T23:07:47.802Z,4.11
2018-12-10T23:10:16.284Z,3.97
2018-12-10T23:12:45.497Z,3.93
2018-12-10T23:15:14.050Z,4.03
2018-12-10T23:17:43.368Z,3.83
2018-12-10T23:20:12.796Z,3.78
2018-12-10T23:22:41.266Z,3.57
2018-12-10T23:25:10.365Z,3.90
2018-12-10T23:27:38.801Z,4.02
2018-12-10T23:30:07.383Z,4.12
2018-12-10T23:32:36.509Z,4.02
2018-12-10T23:35:05.234Z,4.07
2018-12-10T23:37:33.652Z,3.98
2018-12-10T23:40:02.040Z,4.06
2018-12-10T23:42:30.803Z,4.25
2018-12-10T23:44:59.242Z,4.02
2018-12-10T23:47:27.629Z,4.04
2018-12-10T23:49:55.999Z,3.97
2018-12-10T23:52:24.643Z,3.61
2018-12-10T23:55:03.222Z,3.45
2018-12-10T23:57:41.042Z,3.42
